sensor_id;sensor_type;location;lat;lon;timestamp;P1;durP1;ratioP1;P2;durP2;ratioP2
11121;SDS011;5615;49.304;10.576;2023-08-21T00:01:26;16.85;;;14.15;;
11121;SDS011;5615;49.304;10.576;2023-08-21T00:03:53;19.75;;;15.20;;
11121;SDS011;5615;49.304;10.576;2023-08-21T00:06:20;15.30;;;13.90;;
11121;SDS011;5615;49.304;10.576;2023-08-21T00:08:46;15.77;;;14.27;;
11121;SDS011;5615;49.304;10.576;2023-08-21T00:11:13;19.05;;;15.77;;
11121;SDS011;5615;49.304;10.576;2023-08-21T00:13:39;18.13;;;15.75;;
11121;SDS011;5615;49.304;10.576;2023-08-21T00:16:10;17.90;;;16.20;;
11121;SDS011;5615;49.304;10.576;2023-08-21T00:18:37;17.23;;;15.38;;
11121;SDS011;5615;49.304;10.576;2023-08-21T00:21:04;17.92;;;16.33;;
11121;SDS011;5615;49.304;10.576;2023-08-21T00:23:30;17.27;;;15.70;;
11121;SDS011;5615;49.304;10.576;2023-08-21T00:25:57;16.50;;;14.85;;
11121;SDS011;5615;49.304;10.576;2023-08-21T00:28:24;17.25;;;15.75;;
11121;SDS011;5615;49.304;10.576;2023-08-21T00:30:50;16.58;;;14.80;;
11121;SDS011;5615;49.304;10.576;2023-08-21T00:33:18;19.00;;;15.90;;
11121;SDS011;5615;49.304;10.576;2023-08-21T00:35:45;16.48;;;15.07;;
11121;SDS011;5615;49.304;10.576;2023-08-21T00:38:11;18.40;;;16.63;;
11121;SDS011;5615;49.304;10.576;2023-08-21T00:40:38;16.17;;;14.55;;
11121;SDS011;5615;49.304;10.576;2023-08-21T00:43:05;17.20;;;15.43;;
11121;SDS011;5615;49.304;10.576;2023-08-21T00:45:31;16.67;;;15.18;;
11121;SDS011;5615;49.304;10.576;2023-08-21T00:47:58;17.83;;;15.73;;
11121;SDS011;5615;49.304;10.576;2023-08-21T00:50:26;21.05;;;15.63;;
11121;SDS011;5615;49.304;10.576;2023-08-21T00:52:53;17.35;;;15.73;;
11121;SDS011;5615;49.304;10.576;2023-08-21T00:55:19;17.17;;;15.55;;
11121;SDS011;5615;49.304;10.576;2023-08-21T00:57:46;17.00;;;15.50;;
11121;SDS011;5615;49.304;10.576;2023-08-21T01:00:13;17.95;;;16.00;;
11121;SDS011;5615;49.304;10.576;2023-08-21T01:02:40;16.85;;;15.25;;
11121;SDS011;5615;49.304;10.576;2023-08-21T01:05:07;18.52;;;16.65;;
11121;SDS011;5615;49.304;10.576;2023-08-21T01:07:38;18.27;;;15.90;;
11121;SDS011;5615;49.304;10.576;2023-08-21T01:10:14;17.67;;;15.85;;
11121;SDS011;5615;49.304;10.576;2023-08-21T01:12:48;17.02;;;15.52;;
11121;SDS011;5615;49.304;10.576;2023-08-21T01:15:20;18.60;;;16.80;;
11121;SDS011;5615;49.304;10.576;2023-08-21T01:17:48;17.48;;;15.70;;
11121;SDS011;5615;49.304;10.576;2023-08-21T01:20:16;17.67;;;16.08;;
11121;SDS011;5615;49.304;10.576;2023-08-21T01:22:44;18.75;;;15.70;;
11121;SDS011;5615;49.304;10.576;2023-08-21T01:25:12;18.63;;;15.48;;
11121;SDS011;5615;49.304;10.576;2023-08-21T01:27:42;17.70;;;16.02;;
11121;SDS011;5615;49.304;10.576;2023-08-21T01:30:11;17.98;;;15.48;;
11121;SDS011;5615;49.304;10.576;2023-08-21T01:32:43;17.95;;;16.35;;
11121;SDS011;5615;49.304;10.576;2023-08-21T01:35:14;17.95;;;16.15;;
11121;SDS011;5615;49.304;10.576;2023-08-21T01:37:41;18.55;;;16.50;;
11121;SDS011;5615;49.304;10.576;2023-08-21T01:40:09;17.73;;;16.13;;
11121;SDS011;5615;49.304;10.576;2023-08-21T01:42:37;17.13;;;15.63;;
11121;SDS011;5615;49.304;10.576;2023-08-21T01:45:05;17.65;;;15.90;;
11121;SDS011;5615;49.304;10.576;2023-08-21T01:47:32;16.70;;;15.00;;
11121;SDS011;5615;49.304;10.576;2023-08-21T01:49:59;16.15;;;14.55;;
11121;SDS011;5615;49.304;10.576;2023-08-21T01:52:25;16.30;;;14.70;;
11121;SDS011;5615;49.304;10.576;2023-08-21T01:54:52;17.35;;;15.65;;
11121;SDS011;5615;49.304;10.576;2023-08-21T01:57:19;16.20;;;14.73;;
11121;SDS011;5615;49.304;10.576;2023-08-21T01:59:47;16.90;;;15.40;;
11121;SDS011;5615;49.304;10.576;2023-08-21T02:02:13;16.95;;;15.25;;
11121;SDS011;5615;49.304;10.576;2023-08-21T02:04:40;17.45;;;15.65;;
11121;SDS011;5615;49.304;10.576;2023-08-21T02:07:07;17.98;;;15.98;;
11121;SDS011;5615;49.304;10.576;2023-08-21T02:09:33;17.08;;;15.48;;
11121;SDS011;5615;49.304;10.576;2023-08-21T02:12:00;16.92;;;14.95;;
11121;SDS011;5615;49.304;10.576;2023-08-21T02:14:27;17.67;;;16.00;;
11121;SDS011;5615;49.304;10.576;2023-08-21T02:16:55;18.40;;;16.65;;
11121;SDS011;5615;49.304;10.576;2023-08-21T02:19:22;18.42;;;16.52;;
11121;SDS011;5615;49.304;10.576;2023-08-21T02:21:48;19.92;;;17.08;;
11121;SDS011;5615;49.304;10.576;2023-08-21T02:24:15;19.08;;;17.10;;
11121;SDS011;5615;49.304;10.576;2023-08-21T02:26:42;18.55;;;16.85;;
11121;SDS011;5615;49.304;10.576;2023-08-21T02:29:10;18.52;;;16.63;;
11121;SDS011;5615;49.304;10.576;2023-08-21T02:31:37;19.92;;;18.00;;
11121;SDS011;5615;49.304;10.576;2023-08-21T02:34:05;19.58;;;17.63;;
11121;SDS011;5615;49.304;10.576;2023-08-21T02:36:32;18.38;;;16.65;;
11121;SDS011;5615;49.304;10.576;2023-08-21T02:38:58;19.33;;;17.50;;
11121;SDS011;5615;49.304;10.576;2023-08-21T02:41:25;20.02;;;18.17;;
11121;SDS011;5615;49.304;10.576;2023-08-21T02:43:51;20.20;;;18.20;;
11121;SDS011;5615;49.304;10.576;2023-08-21T02:46:18;20.33;;;18.25;;
11121;SDS011;5615;49.304;10.576;2023-08-21T02:48:45;18.85;;;16.85;;
11121;SDS011;5615;49.304;10.576;2023-08-21T02:51:13;19.45;;;17.40;;
11121;SDS011;5615;49.304;10.576;2023-08-21T02:53:40;19.13;;;17.38;;
11121;SDS011;5615;49.304;10.576;2023-08-21T02:56:06;18.70;;;16.83;;
11121;SDS011;5615;49.304;10.576;2023-08-21T02:58:33;19.20;;;16.98;;
11121;SDS011;5615;49.304;10.576;2023-08-21T03:00:59;18.83;;;17.05;;
11121;SDS011;5615;49.304;10.576;2023-08-21T03:03:26;19.50;;;17.48;;
11121;SDS011;5615;49.304;10.576;2023-08-21T03:05:52;20.15;;;17.42;;
11121;SDS011;5615;49.304;10.576;2023-08-21T03:08:20;18.95;;;16.90;;
11121;SDS011;5615;49.304;10.576;2023-08-21T03:10:47;19.08;;;17.08;;
11121;SDS011;5615;49.304;10.576;2023-08-21T03:13:14;18.80;;;16.95;;
11121;SDS011;5615;49.304;10.576;2023-08-21T03:15:40;19.35;;;16.77;;
11121;SDS011;5615;49.304;10.576;2023-08-21T03:18:07;19.35;;;16.35;;
11121;SDS011;5615;49.304;10.576;2023-08-21T03:20:34;19.20;;;17.40;;
11121;SDS011;5615;49.304;10.576;2023-08-21T03:23:00;19.40;;;17.35;;
11121;SDS011;5615;49.304;10.576;2023-08-21T03:25:28;18.20;;;16.48;;
11121;SDS011;5615;49.304;10.576;2023-08-21T03:27:55;21.17;;;17.83;;
11121;SDS011;5615;49.304;10.576;2023-08-21T03:30:21;18.90;;;17.23;;
11121;SDS011;5615;49.304;10.576;2023-08-21T03:32:48;20.35;;;18.35;;
11121;SDS011;5615;49.304;10.576;2023-08-21T03:35:15;20.67;;;17.38;;
11121;SDS011;5615;49.304;10.576;2023-08-21T03:37:42;20.77;;;18.88;;
11121;SDS011;5615;49.304;10.576;2023-08-21T03:40:09;20.02;;;18.13;;
11121;SDS011;5615;49.304;10.576;2023-08-21T03:42:37;21.30;;;19.20;;
11121;SDS011;5615;49.304;10.576;2023-08-21T03:45:04;21.80;;;19.77;;
11121;SDS011;5615;49.304;10.576;2023-08-21T03:47:31;21.70;;;19.40;;
11121;SDS011;5615;49.304;10.576;2023-08-21T03:49:58;21.27;;;19.15;;
11121;SDS011;5615;49.304;10.576;2023-08-21T03:52:25;21.63;;;19.40;;
11121;SDS011;5615;49.304;10.576;2023-08-21T03:54:52;22.20;;;20.23;;
11121;SDS011;5615;49.304;10.576;2023-08-21T03:57:18;22.02;;;19.75;;
11121;SDS011;5615;49.304;10.576;2023-08-21T03:59:46;23.33;;;20.73;;
11121;SDS011;5615;49.304;10.576;2023-08-21T04:02:13;23.23;;;21.13;;
11121;SDS011;5615;49.304;10.576;2023-08-21T04:04:39;23.02;;;20.90;;
11121;SDS011;5615;49.304;10.576;2023-08-21T04:07:06;23.48;;;21.13;;
11121;SDS011;5615;49.304;10.576;2023-08-21T04:09:32;22.25;;;20.15;;
11121;SDS011;5615;49.304;10.576;2023-08-21T04:11:59;22.30;;;20.00;;
11121;SDS011;5615;49.304;10.576;2023-08-21T04:14:26;23.55;;;21.05;;
11121;SDS011;5615;49.304;10.576;2023-08-21T04:16:54;23.50;;;20.90;;
11121;SDS011;5615;49.304;10.576;2023-08-21T04:19:20;22.83;;;20.58;;
11121;SDS011;5615;49.304;10.576;2023-08-21T04:21:47;22.77;;;20.63;;
11121;SDS011;5615;49.304;10.576;2023-08-21T04:24:13;23.35;;;20.92;;
11121;SDS011;5615;49.304;10.576;2023-08-21T04:26:40;23.27;;;20.98;;
11121;SDS011;5615;49.304;10.576;2023-08-21T04:29:07;23.17;;;20.77;;
11121;SDS011;5615;49.304;10.576;2023-08-21T04:31:33;24.50;;;22.20;;
11121;SDS011;5615;49.304;10.576;2023-08-21T04:34:01;24.50;;;21.50;;
11121;SDS011;5615;49.304;10.576;2023-08-21T04:36:29;24.15;;;21.73;;
11121;SDS011;5615;49.304;10.576;2023-08-21T04:38:55;23.65;;;21.17;;
11121;SDS011;5615;49.304;10.576;2023-08-21T04:41:22;23.88;;;21.25;;
11121;SDS011;5615;49.304;10.576;2023-08-21T04:43:48;23.30;;;21.02;;
11121;SDS011;5615;49.304;10.576;2023-08-21T04:46:15;23.27;;;20.75;;
11121;SDS011;5615;49.304;10.576;2023-08-21T04:48:42;27.65;;;23.05;;
11121;SDS011;5615;49.304;10.576;2023-08-21T04:51:10;23.23;;;21.13;;
11121;SDS011;5615;49.304;10.576;2023-08-21T04:53:37;24.60;;;21.95;;
11121;SDS011;5615;49.304;10.576;2023-08-21T04:56:03;23.65;;;21.27;;
11121;SDS011;5615;49.304;10.576;2023-08-21T04:58:30;24.25;;;21.67;;
11121;SDS011;5615;49.304;10.576;2023-08-21T05:00:57;24.00;;;21.80;;
11121;SDS011;5615;49.304;10.576;2023-08-21T05:03:24;27.38;;;21.65;;
11121;SDS011;5615;49.304;10.576;2023-08-21T05:05:53;22.08;;;20.08;;
11121;SDS011;5615;49.304;10.576;2023-08-21T05:08:22;22.15;;;19.88;;
11121;SDS011;5615;49.304;10.576;2023-08-21T05:10:53;22.63;;;20.38;;
11121;SDS011;5615;49.304;10.576;2023-08-21T05:13:21;22.60;;;19.15;;
11121;SDS011;5615;49.304;10.576;2023-08-21T05:15:50;23.02;;;20.83;;
11121;SDS011;5615;49.304;10.576;2023-08-21T05:18:18;22.17;;;19.65;;
11121;SDS011;5615;49.304;10.576;2023-08-21T05:20:45;20.88;;;18.98;;
11121;SDS011;5615;49.304;10.576;2023-08-21T05:23:12;21.13;;;19.15;;
11121;SDS011;5615;49.304;10.576;2023-08-21T05:25:40;21.15;;;18.92;;
11121;SDS011;5615;49.304;10.576;2023-08-21T05:28:07;24.13;;;19.70;;
11121;SDS011;5615;49.304;10.576;2023-08-21T05:30:35;21.15;;;19.05;;
11121;SDS011;5615;49.304;10.576;2023-08-21T05:33:01;21.42;;;19.38;;
11121;SDS011;5615;49.304;10.576;2023-08-21T05:35:28;21.30;;;19.10;;
11121;SDS011;5615;49.304;10.576;2023-08-21T05:37:58;21.02;;;19.02;;
11121;SDS011;5615;49.304;10.576;2023-08-21T05:40:24;20.60;;;18.80;;
11121;SDS011;5615;49.304;10.576;2023-08-21T05:42:52;20.90;;;18.83;;
11121;SDS011;5615;49.304;10.576;2023-08-21T05:45:19;21.55;;;19.30;;
11121;SDS011;5615;49.304;10.576;2023-08-21T05:47:46;22.40;;;20.15;;
11121;SDS011;5615;49.304;10.576;2023-08-21T05:50:12;21.30;;;19.10;;
11121;SDS011;5615;49.304;10.576;2023-08-21T05:52:39;22.25;;;20.00;;
11121;SDS011;5615;49.304;10.576;2023-08-21T05:55:06;19.60;;;17.77;;
11121;SDS011;5615;49.304;10.576;2023-08-21T05:57:33;21.58;;;19.23;;
11121;SDS011;5615;49.304;10.576;2023-08-21T06:00:01;19.92;;;18.10;;
11121;SDS011;5615;49.304;10.576;2023-08-21T06:02:28;19.05;;;17.27;;
11121;SDS011;5615;49.304;10.576;2023-08-21T06:04:54;20.65;;;18.70;;
11121;SDS011;5615;49.304;10.576;2023-08-21T06:07:21;21.08;;;18.38;;
11121;SDS011;5615;49.304;10.576;2023-08-21T06:09:47;19.92;;;17.92;;
11121;SDS011;5615;49.304;10.576;2023-08-21T06:12:14;20.38;;;18.48;;
11121;SDS011;5615;49.304;10.576;2023-08-21T06:14:41;22.50;;;20.40;;
11121;SDS011;5615;49.304;10.576;2023-08-21T06:17:09;22.73;;;20.60;;
11121;SDS011;5615;49.304;10.576;2023-08-21T06:19:36;23.38;;;20.90;;
11121;SDS011;5615;49.304;10.576;2023-08-21T06:22:02;22.77;;;20.70;;
11121;SDS011;5615;49.304;10.576;2023-08-21T06:24:31;23.13;;;21.02;;
11121;SDS011;5615;49.304;10.576;2023-08-21T06:26:57;20.88;;;18.75;;
11121;SDS011;5615;49.304;10.576;2023-08-21T06:29:24;21.77;;;19.58;;
11121;SDS011;5615;49.304;10.576;2023-08-21T06:31:51;23.17;;;20.95;;
11121;SDS011;5615;49.304;10.576;2023-08-21T06:34:19;22.40;;;20.05;;
11121;SDS011;5615;49.304;10.576;2023-08-21T06:36:45;21.08;;;18.92;;
11121;SDS011;5615;49.304;10.576;2023-08-21T06:39:12;21.70;;;19.63;;
11121;SDS011;5615;49.304;10.576;2023-08-21T06:41:38;22.45;;;20.38;;
11121;SDS011;5615;49.304;10.576;2023-08-21T06:44:05;23.23;;;19.88;;
11121;SDS011;5615;49.304;10.576;2023-08-21T06:46:32;20.95;;;18.77;;
11121;SDS011;5615;49.304;10.576;2023-08-21T06:48:59;20.85;;;18.95;;
11121;SDS011;5615;49.304;10.576;2023-08-21T06:51:27;22.52;;;20.52;;
11121;SDS011;5615;49.304;10.576;2023-08-21T06:53:53;22.95;;;20.55;;
11121;SDS011;5615;49.304;10.576;2023-08-21T06:56:20;22.83;;;20.58;;
11121;SDS011;5615;49.304;10.576;2023-08-21T06:58:47;22.30;;;20.20;;
11121;SDS011;5615;49.304;10.576;2023-08-21T07:01:13;22.23;;;20.15;;
11121;SDS011;5615;49.304;10.576;2023-08-21T07:03:40;20.75;;;18.85;;
11121;SDS011;5615;49.304;10.576;2023-08-21T07:06:06;22.73;;;20.40;;
11121;SDS011;5615;49.304;10.576;2023-08-21T07:08:34;20.80;;;18.70;;
11121;SDS011;5615;49.304;10.576;2023-08-21T07:11:02;20.48;;;18.58;;
11121;SDS011;5615;49.304;10.576;2023-08-21T07:13:30;20.42;;;18.52;;
11121;SDS011;5615;49.304;10.576;2023-08-21T07:15:56;20.40;;;18.50;;
11121;SDS011;5615;49.304;10.576;2023-08-21T07:18:23;20.67;;;18.50;;
11121;SDS011;5615;49.304;10.576;2023-08-21T07:20:51;20.75;;;18.27;;
11121;SDS011;5615;49.304;10.576;2023-08-21T07:23:18;20.42;;;18.38;;
11121;SDS011;5615;49.304;10.576;2023-08-21T07:25:46;19.35;;;17.55;;
11121;SDS011;5615;49.304;10.576;2023-08-21T07:28:13;19.77;;;17.88;;
11121;SDS011;5615;49.304;10.576;2023-08-21T07:30:39;19.48;;;17.52;;
11121;SDS011;5615;49.304;10.576;2023-08-21T07:33:06;20.38;;;16.92;;
11121;SDS011;5615;49.304;10.576;2023-08-21T07:35:33;19.30;;;17.63;;
11121;SDS011;5615;49.304;10.576;2023-08-21T07:37:59;20.10;;;17.85;;
11121;SDS011;5615;49.304;10.576;2023-08-21T07:40:26;19.98;;;17.95;;
11121;SDS011;5615;49.304;10.576;2023-08-21T07:42:54;19.88;;;18.10;;
11121;SDS011;5615;49.304;10.576;2023-08-21T07:45:21;22.30;;;19.40;;
11121;SDS011;5615;49.304;10.576;2023-08-21T07:47:47;20.35;;;18.50;;
11121;SDS011;5615;49.304;10.576;2023-08-21T07:50:14;21.70;;;19.52;;
11121;SDS011;5615;49.304;10.576;2023-08-21T07:52:41;23.45;;;21.13;;
11121;SDS011;5615;49.304;10.576;2023-08-21T07:55:08;21.52;;;19.58;;
11121;SDS011;5615;49.304;10.576;2023-08-21T07:57:35;22.80;;;20.38;;
11121;SDS011;5615;49.304;10.576;2023-08-21T08:00:04;23.33;;;21.08;;
11121;SDS011;5615;49.304;10.576;2023-08-21T08:02:33;23.40;;;21.15;;
11121;SDS011;5615;49.304;10.576;2023-08-21T08:05:00;24.83;;;22.50;;
11121;SDS011;5615;49.304;10.576;2023-08-21T08:07:26;25.40;;;23.08;;
11121;SDS011;5615;49.304;10.576;2023-08-21T08:09:53;23.65;;;21.40;;
11121;SDS011;5615;49.304;10.576;2023-08-21T08:12:20;22.65;;;20.50;;
11121;SDS011;5615;49.304;10.576;2023-08-21T08:14:47;20.35;;;18.15;;
11121;SDS011;5615;49.304;10.576;2023-08-21T08:17:15;20.45;;;18.63;;
11121;SDS011;5615;49.304;10.576;2023-08-21T08:19:41;18.95;;;17.08;;
11121;SDS011;5615;49.304;10.576;2023-08-21T08:22:08;18.63;;;16.85;;
11121;SDS011;5615;49.304;10.576;2023-08-21T08:24:34;16.58;;;15.13;;
11121;SDS011;5615;49.304;10.576;2023-08-21T08:27:01;19.88;;;16.63;;
11121;SDS011;5615;49.304;10.576;2023-08-21T08:29:28;16.17;;;14.32;;
11121;SDS011;5615;49.304;10.576;2023-08-21T08:31:55;15.35;;;13.98;;
11121;SDS011;5615;49.304;10.576;2023-08-21T08:34:23;15.77;;;14.27;;
11121;SDS011;5615;49.304;10.576;2023-08-21T08:36:50;14.98;;;13.57;;
11121;SDS011;5615;49.304;10.576;2023-08-21T08:39:16;15.20;;;13.73;;
11121;SDS011;5615;49.304;10.576;2023-08-21T08:41:44;14.75;;;13.30;;
11121;SDS011;5615;49.304;10.576;2023-08-21T08:44:16;15.60;;;13.55;;
11121;SDS011;5615;49.304;10.576;2023-08-21T08:46:44;14.13;;;12.82;;
11121;SDS011;5615;49.304;10.576;2023-08-21T08:49:11;14.13;;;12.93;;
11121;SDS011;5615;49.304;10.576;2023-08-21T08:51:39;14.23;;;12.55;;
11121;SDS011;5615;49.304;10.576;2023-08-21T08:54:07;13.70;;;12.35;;
11121;SDS011;5615;49.304;10.576;2023-08-21T08:56:35;14.93;;;13.35;;
11121;SDS011;5615;49.304;10.576;2023-08-21T08:59:01;17.23;;;13.43;;
11121;SDS011;5615;49.304;10.576;2023-08-21T09:01:28;13.23;;;12.10;;
11121;SDS011;5615;49.304;10.576;2023-08-21T09:03:55;12.88;;;11.68;;
11121;SDS011;5615;49.304;10.576;2023-08-21T09:06:21;13.98;;;11.13;;
11121;SDS011;5615;49.304;10.576;2023-08-21T09:08:56;12.40;;;11.35;;
11121;SDS011;5615;49.304;10.576;2023-08-21T09:11:23;12.00;;;11.00;;
11121;SDS011;5615;49.304;10.576;2023-08-21T09:13:50;11.60;;;10.60;;
11121;SDS011;5615;49.304;10.576;2023-08-21T09:16:18;11.27;;;10.35;;
11121;SDS011;5615;49.304;10.576;2023-08-21T09:18:48;11.55;;;10.40;;
11121;SDS011;5615;49.304;10.576;2023-08-21T09:21:16;15.10;;;11.65;;
11121;SDS011;5615;49.304;10.576;2023-08-21T09:23:43;14.65;;;11.52;;
11121;SDS011;5615;49.304;10.576;2023-08-21T09:26:12;11.35;;;10.35;;
11121;SDS011;5615;49.304;10.576;2023-08-21T09:28:45;18.95;;;10.93;;
11121;SDS011;5615;49.304;10.576;2023-08-21T09:31:12;12.35;;;11.00;;
11121;SDS011;5615;49.304;10.576;2023-08-21T09:33:39;15.80;;;10.65;;
11121;SDS011;5615;49.304;10.576;2023-08-21T09:36:06;13.55;;;9.82;;
11121;SDS011;5615;49.304;10.576;2023-08-21T09:38:35;12.30;;;9.55;;
11121;SDS011;5615;49.304;10.576;2023-08-21T09:41:04;9.25;;;7.75;;
11121;SDS011;5615;49.304;10.576;2023-08-21T09:43:37;12.75;;;8.68;;
11121;SDS011;5615;49.304;10.576;2023-08-21T09:46:07;9.50;;;7.60;;
11121;SDS011;5615;49.304;10.576;2023-08-21T09:48:34;9.20;;;8.23;;
11121;SDS011;5615;49.304;10.576;2023-08-21T09:51:02;9.18;;;7.03;;
11121;SDS011;5615;49.304;10.576;2023-08-21T09:53:30;8.77;;;6.60;;
11121;SDS011;5615;49.304;10.576;2023-08-21T09:55:56;7.57;;;6.68;;
11121;SDS011;5615;49.304;10.576;2023-08-21T09:58:23;7.05;;;6.35;;
11121;SDS011;5615;49.304;10.576;2023-08-21T10:00:52;8.13;;;6.50;;
11121;SDS011;5615;49.304;10.576;2023-08-21T10:03:23;7.05;;;5.93;;
11121;SDS011;5615;49.304;10.576;2023-08-21T10:05:50;5.80;;;5.30;;
11121;SDS011;5615;49.304;10.576;2023-08-21T10:08:21;9.20;;;6.65;;
11121;SDS011;5615;49.304;10.576;2023-08-21T10:10:51;7.13;;;6.43;;
11121;SDS011;5615;49.304;10.576;2023-08-21T10:13:18;9.93;;;7.00;;
11121;SDS011;5615;49.304;10.576;2023-08-21T10:15:45;7.70;;;6.60;;
11121;SDS011;5615;49.304;10.576;2023-08-21T10:18:20;7.13;;;6.53;;
11121;SDS011;5615;49.304;10.576;2023-08-21T10:20:48;7.40;;;6.72;;
11121;SDS011;5615;49.304;10.576;2023-08-21T10:23:24;7.50;;;6.80;;
11121;SDS011;5615;49.304;10.576;2023-08-21T10:25:55;10.18;;;7.65;;
11121;SDS011;5615;49.304;10.576;2023-08-21T10:28:23;8.38;;;7.57;;
11121;SDS011;5615;49.304;10.576;2023-08-21T10:30:49;8.43;;;7.57;;
11121;SDS011;5615;49.304;10.576;2023-08-21T10:33:17;7.30;;;6.63;;
11121;SDS011;5615;49.304;10.576;2023-08-21T10:36:05;10.88;;;7.03;;
11121;SDS011;5615;49.304;10.576;2023-08-21T10:38:32;8.18;;;7.40;;
11121;SDS011;5615;49.304;10.576;2023-08-21T10:41:18;8.93;;;7.55;;
11121;SDS011;5615;49.304;10.576;2023-08-21T10:43:52;8.07;;;7.30;;
11121;SDS011;5615;49.304;10.576;2023-08-21T10:46:19;8.32;;;7.20;;
11121;SDS011;5615;49.304;10.576;2023-08-21T10:48:45;8.38;;;7.50;;
11121;SDS011;5615;49.304;10.576;2023-08-21T10:51:13;9.43;;;7.80;;
11121;SDS011;5615;49.304;10.576;2023-08-21T10:53:43;8.48;;;7.10;;
11121;SDS011;5615;49.304;10.576;2023-08-21T10:56:09;7.65;;;6.90;;
11121;SDS011;5615;49.304;10.576;2023-08-21T10:58:38;9.18;;;6.70;;
11121;SDS011;5615;49.304;10.576;2023-08-21T11:01:06;8.27;;;7.47;;
11121;SDS011;5615;49.304;10.576;2023-08-21T11:03:33;7.10;;;6.40;;
11121;SDS011;5615;49.304;10.576;2023-08-21T11:06:01;10.07;;;6.78;;
11121;SDS011;5615;49.304;10.576;2023-08-21T11:08:30;8.10;;;6.95;;
11121;SDS011;5615;49.304;10.576;2023-08-21T11:10:57;7.28;;;6.57;;
11121;SDS011;5615;49.304;10.576;2023-08-21T11:13:24;11.15;;;7.55;;
11121;SDS011;5615;49.304;10.576;2023-08-21T11:15:57;8.73;;;7.15;;
11121;SDS011;5615;49.304;10.576;2023-08-21T11:18:29;9.48;;;7.50;;
11121;SDS011;5615;49.304;10.576;2023-08-21T11:21:02;10.43;;;7.80;;
11121;SDS011;5615;49.304;10.576;2023-08-21T11:23:32;9.18;;;8.15;;
11121;SDS011;5615;49.304;10.576;2023-08-21T11:26:00;9.40;;;7.90;;
11121;SDS011;5615;49.304;10.576;2023-08-21T11:28:27;8.57;;;7.50;;
11121;SDS011;5615;49.304;10.576;2023-08-21T11:30:55;9.43;;;7.80;;
11121;SDS011;5615;49.304;10.576;2023-08-21T11:33:22;9.38;;;7.38;;
11121;SDS011;5615;49.304;10.576;2023-08-21T11:35:49;12.15;;;7.38;;
11121;SDS011;5615;49.304;10.576;2023-08-21T11:38:19;9.43;;;7.03;;
11121;SDS011;5615;49.304;10.576;2023-08-21T11:40:54;9.55;;;7.40;;
11121;SDS011;5615;49.304;10.576;2023-08-21T11:43:22;7.63;;;6.88;;
11121;SDS011;5615;49.304;10.576;2023-08-21T11:46:00;8.25;;;7.25;;
11121;SDS011;5615;49.304;10.576;2023-08-21T11:48:27;9.70;;;7.68;;
11121;SDS011;5615;49.304;10.576;2023-08-21T11:50:54;8.70;;;6.93;;
11121;SDS011;5615;49.304;10.576;2023-08-21T11:53:31;8.70;;;6.72;;
11121;SDS011;5615;49.304;10.576;2023-08-21T11:56:00;8.25;;;6.38;;
11121;SDS011;5615;49.304;10.576;2023-08-21T11:58:27;8.68;;;6.93;;
11121;SDS011;5615;49.304;10.576;2023-08-21T12:00:53;8.63;;;7.72;;
11121;SDS011;5615;49.304;10.576;2023-08-21T12:03:20;9.00;;;7.35;;
11121;SDS011;5615;49.304;10.576;2023-08-21T12:05:47;8.70;;;7.88;;
11121;SDS011;5615;49.304;10.576;2023-08-21T12:08:13;11.48;;;7.80;;
11121;SDS011;5615;49.304;10.576;2023-08-21T12:10:40;10.20;;;7.70;;
11121;SDS011;5615;49.304;10.576;2023-08-21T12:13:08;9.13;;;7.60;;
11121;SDS011;5615;49.304;10.576;2023-08-21T12:15:35;8.45;;;7.55;;
11121;SDS011;5615;49.304;10.576;2023-08-21T12:18:02;8.07;;;7.00;;
11121;SDS011;5615;49.304;10.576;2023-08-21T12:20:29;8.95;;;7.47;;
11121;SDS011;5615;49.304;10.576;2023-08-21T12:22:55;8.32;;;5.90;;
11121;SDS011;5615;49.304;10.576;2023-08-21T12:25:22;10.80;;;6.25;;
11121;SDS011;5615;49.304;10.576;2023-08-21T12:27:49;7.30;;;6.32;;
11121;SDS011;5615;49.304;10.576;2023-08-21T12:30:17;10.35;;;6.47;;
11121;SDS011;5615;49.304;10.576;2023-08-21T12:32:43;8.82;;;6.75;;
11121;SDS011;5615;49.304;10.576;2023-08-21T12:35:10;9.57;;;6.35;;
11121;SDS011;5615;49.304;10.576;2023-08-21T12:37:37;9.00;;;6.13;;
11121;SDS011;5615;49.304;10.576;2023-08-21T12:40:04;8.50;;;6.20;;
11121;SDS011;5615;49.304;10.576;2023-08-21T12:42:32;11.60;;;6.80;;
11121;SDS011;5615;49.304;10.576;2023-08-21T12:44:58;10.35;;;6.13;;
11121;SDS011;5615;49.304;10.576;2023-08-21T12:47:26;7.47;;;6.40;;
11121;SDS011;5615;49.304;10.576;2023-08-21T12:49:53;7.78;;;6.07;;
11121;SDS011;5615;49.304;10.576;2023-08-21T12:52:19;8.55;;;6.15;;
11121;SDS011;5615;49.304;10.576;2023-08-21T12:54:46;12.00;;;6.03;;
11121;SDS011;5615;49.304;10.576;2023-08-21T12:57:13;9.20;;;6.25;;
11121;SDS011;5615;49.304;10.576;2023-08-21T12:59:41;9.43;;;6.20;;
11121;SDS011;5615;49.304;10.576;2023-08-21T13:02:08;14.30;;;6.43;;
11121;SDS011;5615;49.304;10.576;2023-08-21T13:04:36;7.35;;;6.53;;
11121;SDS011;5615;49.304;10.576;2023-08-21T13:07:03;8.18;;;5.80;;
11121;SDS011;5615;49.304;10.576;2023-08-21T13:09:29;13.02;;;6.68;;
11121;SDS011;5615;49.304;10.576;2023-08-21T13:11:56;6.82;;;5.82;;
11121;SDS011;5615;49.304;10.576;2023-08-21T13:14:22;7.35;;;6.00;;
11121;SDS011;5615;49.304;10.576;2023-08-21T13:16:49;11.18;;;6.45;;
11121;SDS011;5615;49.304;10.576;2023-08-21T13:19:16;8.30;;;6.22;;
11121;SDS011;5615;49.304;10.576;2023-08-21T13:21:44;9.02;;;6.05;;
11121;SDS011;5615;49.304;10.576;2023-08-21T13:24:10;10.20;;;6.80;;
11121;SDS011;5615;49.304;10.576;2023-08-21T13:26:37;7.82;;;6.03;;
11121;SDS011;5615;49.304;10.576;2023-08-21T13:29:03;7.50;;;5.88;;
11121;SDS011;5615;49.304;10.576;2023-08-21T13:31:32;10.65;;;5.93;;
11121;SDS011;5615;49.304;10.576;2023-08-21T13:33:59;7.35;;;5.63;;
11121;SDS011;5615;49.304;10.576;2023-08-21T13:36:25;10.10;;;5.82;;
11121;SDS011;5615;49.304;10.576;2023-08-21T13:38:54;8.85;;;5.70;;
11121;SDS011;5615;49.304;10.576;2023-08-21T13:41:20;8.93;;;5.75;;
11121;SDS011;5615;49.304;10.576;2023-08-21T13:43:47;7.47;;;5.60;;
11121;SDS011;5615;49.304;10.576;2023-08-21T13:46:14;6.22;;;5.15;;
11121;SDS011;5615;49.304;10.576;2023-08-21T13:48:40;8.23;;;6.00;;
11121;SDS011;5615;49.304;10.576;2023-08-21T13:51:08;9.63;;;5.68;;
11121;SDS011;5615;49.304;10.576;2023-08-21T13:53:35;8.70;;;6.03;;
11121;SDS011;5615;49.304;10.576;2023-08-21T13:56:03;7.95;;;5.57;;
11121;SDS011;5615;49.304;10.576;2023-08-21T13:58:29;7.60;;;6.00;;
11121;SDS011;5615;49.304;10.576;2023-08-21T14:00:56;8.07;;;6.10;;
11121;SDS011;5615;49.304;10.576;2023-08-21T14:03:23;7.20;;;5.50;;
11121;SDS011;5615;49.304;10.576;2023-08-21T14:05:49;6.90;;;6.00;;
11121;SDS011;5615;49.304;10.576;2023-08-21T14:08:16;7.85;;;5.95;;
11121;SDS011;5615;49.304;10.576;2023-08-21T14:10:43;6.40;;;5.85;;
11121;SDS011;5615;49.304;10.576;2023-08-21T14:13:11;8.85;;;6.13;;
11121;SDS011;5615;49.304;10.576;2023-08-21T14:15:37;8.82;;;6.47;;
11121;SDS011;5615;49.304;10.576;2023-08-21T14:18:04;10.02;;;6.53;;
11121;SDS011;5615;49.304;10.576;2023-08-21T14:20:31;6.75;;;5.60;;
11121;SDS011;5615;49.304;10.576;2023-08-21T14:22:57;6.63;;;6.00;;
11121;SDS011;5615;49.304;10.576;2023-08-21T14:25:24;13.85;;;6.45;;
11121;SDS011;5615;49.304;10.576;2023-08-21T14:27:51;7.63;;;6.45;;
11121;SDS011;5615;49.304;10.576;2023-08-21T14:30:19;8.52;;;5.88;;